sensor_id;sensor_type;location;lat;lon;timestamp;P1;durP1;ratioP1;P2;durP2;ratioP2
54921;SDS011;40824;45.116;21.296;2022-07-10T00:00:05;6.30;;;4.18;;
54921;SDS011;40824;45.116;21.296;2022-07-10T00:02:31;7.07;;;4.32;;
54921;SDS011;40824;45.116;21.296;2022-07-10T00:04:57;4.82;;;3.97;;
54921;SDS011;40824;45.116;21.296;2022-07-10T00:07:23;5.05;;;4.03;;
54921;SDS011;40824;45.116;21.296;2022-07-10T00:09:49;7.35;;;4.00;;
54921;SDS011;40824;45.116;21.296;2022-07-10T00:12:15;7.90;;;4.15;;
54921;SDS011;40824;45.116;21.296;2022-07-10T00:14:42;5.15;;;3.70;;
54921;SDS011;40824;45.116;21.296;2022-07-10T00:17:08;6.55;;;3.63;;
54921;SDS011;40824;45.116;21.296;2022-07-10T00:19:34;4.60;;;3.35;;
54921;SDS011;40824;45.116;21.296;2022-07-10T00:22:00;5.97;;;3.67;;
54921;SDS011;40824;45.116;21.296;2022-07-10T00:24:26;5.72;;;3.20;;
54921;SDS011;40824;45.116;21.296;2022-07-10T00:26:52;6.15;;;3.28;;
54921;SDS011;40824;45.116;21.296;2022-07-10T00:29:18;6.38;;;3.35;;
54921;SDS011;40824;45.116;21.296;2022-07-10T00:31:44;5.13;;;3.30;;
54921;SDS011;40824;45.116;21.296;2022-07-10T00:34:10;5.10;;;3.05;;
54921;SDS011;40824;45.116;21.296;2022-07-10T00:36:37;4.85;;;3.30;;
54921;SDS011;40824;45.116;21.296;2022-07-10T00:39:03;6.45;;;3.00;;
54921;SDS011;40824;45.116;21.296;2022-07-10T00:41:30;6.22;;;3.10;;
54921;SDS011;40824;45.116;21.296;2022-07-10T00:43:59;5.32;;;3.08;;
54921;SDS011;40824;45.116;21.296;2022-07-10T00:46:26;5.05;;;2.90;;
54921;SDS011;40824;45.116;21.296;2022-07-10T00:48:52;5.05;;;2.70;;
54921;SDS011;40824;45.116;21.296;2022-07-10T00:51:20;5.80;;;3.10;;
54921;SDS011;40824;45.116;21.296;2022-07-10T00:53:47;8.18;;;3.28;;
54921;SDS011;40824;45.116;21.296;2022-07-10T00:56:18;5.57;;;3.20;;
54921;SDS011;40824;45.116;21.296;2022-07-10T00:58:47;5.75;;;3.05;;
54921;SDS011;40824;45.116;21.296;2022-07-10T01:01:14;5.93;;;3.00;;
54921;SDS011;40824;45.116;21.296;2022-07-10T01:03:41;5.35;;;2.67;;
54921;SDS011;40824;45.116;21.296;2022-07-10T01:06:07;3.58;;;2.80;;
54921;SDS011;40824;45.116;21.296;2022-07-10T01:08:33;5.53;;;2.83;;
54921;SDS011;40824;45.116;21.296;2022-07-10T01:10:59;4.47;;;3.03;;
54921;SDS011;40824;45.116;21.296;2022-07-10T01:13:26;5.88;;;2.72;;
54921;SDS011;40824;45.116;21.296;2022-07-10T01:15:52;6.72;;;3.25;;
54921;SDS011;40824;45.116;21.296;2022-07-10T01:18:18;6.88;;;3.17;;
54921;SDS011;40824;45.116;21.296;2022-07-10T01:20:45;4.63;;;2.83;;
54921;SDS011;40824;45.116;21.296;2022-07-10T01:23:11;5.60;;;2.75;;
54921;SDS011;40824;45.116;21.296;2022-07-10T01:25:37;4.57;;;2.85;;
54921;SDS011;40824;45.116;21.296;2022-07-10T01:28:03;4.28;;;2.63;;
54921;SDS011;40824;45.116;21.296;2022-07-10T01:30:30;5.65;;;2.80;;
54921;SDS011;40824;45.116;21.296;2022-07-10T01:32:56;6.05;;;2.78;;
54921;SDS011;40824;45.116;21.296;2022-07-10T01:35:22;6.70;;;3.05;;
54921;SDS011;40824;45.116;21.296;2022-07-10T01:37:49;7.45;;;2.90;;
54921;SDS011;40824;45.116;21.296;2022-07-10T01:40:15;4.88;;;2.78;;
54921;SDS011;40824;45.116;21.296;2022-07-10T01:42:41;7.20;;;3.05;;
54921;SDS011;40824;45.116;21.296;2022-07-10T01:45:08;5.22;;;2.67;;
54921;SDS011;40824;45.116;21.296;2022-07-10T01:47:34;4.53;;;2.50;;
54921;SDS011;40824;45.116;21.296;2022-07-10T01:50:01;5.18;;;2.50;;
54921;SDS011;40824;45.116;21.296;2022-07-10T01:52:27;4.85;;;2.50;;
54921;SDS011;40824;45.116;21.296;2022-07-10T01:54:53;5.35;;;2.70;;
54921;SDS011;40824;45.116;21.296;2022-07-10T01:57:20;6.45;;;2.50;;
54921;SDS011;40824;45.116;21.296;2022-07-10T01:59:46;7.93;;;2.67;;
54921;SDS011;40824;45.116;21.296;2022-07-10T02:02:12;3.88;;;2.50;;
54921;SDS011;40824;45.116;21.296;2022-07-10T02:04:38;3.55;;;2.53;;
54921;SDS011;40824;45.116;21.296;2022-07-10T02:07:07;6.50;;;2.60;;
54921;SDS011;40824;45.116;21.296;2022-07-10T02:09:34;5.65;;;2.60;;
54921;SDS011;40824;45.116;21.296;2022-07-10T02:12:00;5.70;;;2.70;;
54921;SDS011;40824;45.116;21.296;2022-07-10T02:14:26;3.38;;;2.53;;
54921;SDS011;40824;45.116;21.296;2022-07-10T02:16:52;5.57;;;2.92;;
54921;SDS011;40824;45.116;21.296;2022-07-10T02:19:19;6.88;;;2.45;;
54921;SDS011;40824;45.116;21.296;2022-07-10T02:21:45;5.18;;;2.70;;
54921;SDS011;40824;45.116;21.296;2022-07-10T02:24:11;4.72;;;2.45;;
54921;SDS011;40824;45.116;21.296;2022-07-10T02:26:37;3.00;;;2.20;;
54921;SDS011;40824;45.116;21.296;2022-07-10T02:29:03;6.32;;;2.80;;
54921;SDS011;40824;45.116;21.296;2022-07-10T02:31:29;3.88;;;2.38;;
54921;SDS011;40824;45.116;21.296;2022-07-10T02:33:57;7.05;;;3.08;;
54921;SDS011;40824;45.116;21.296;2022-07-10T02:36:23;5.55;;;2.42;;
54921;SDS011;40824;45.116;21.296;2022-07-10T02:38:49;5.75;;;2.90;;
54921;SDS011;40824;45.116;21.296;2022-07-10T02:41:15;5.50;;;2.72;;
54921;SDS011;40824;45.116;21.296;2022-07-10T02:43:41;6.78;;;3.45;;
54921;SDS011;40824;45.116;21.296;2022-07-10T02:46:07;5.18;;;2.15;;
54921;SDS011;40824;45.116;21.296;2022-07-10T02:48:34;7.28;;;2.45;;
54921;SDS011;40824;45.116;21.296;2022-07-10T02:51:00;4.32;;;2.25;;
54921;SDS011;40824;45.116;21.296;2022-07-10T02:53:26;3.95;;;2.33;;
54921;SDS011;40824;45.116;21.296;2022-07-10T02:55:52;3.90;;;2.30;;
54921;SDS011;40824;45.116;21.296;2022-07-10T02:58:18;6.65;;;2.58;;
54921;SDS011;40824;45.116;21.296;2022-07-10T03:00:44;5.40;;;2.35;;
54921;SDS011;40824;45.116;21.296;2022-07-10T03:03:11;5.32;;;2.08;;
54921;SDS011;40824;45.116;21.296;2022-07-10T03:05:37;4.40;;;2.28;;
54921;SDS011;40824;45.116;21.296;2022-07-10T03:08:03;5.00;;;2.60;;
54921;SDS011;40824;45.116;21.296;2022-07-10T03:10:29;5.15;;;2.30;;
54921;SDS011;40824;45.116;21.296;2022-07-10T03:12:55;3.75;;;2.35;;
54921;SDS011;40824;45.116;21.296;2022-07-10T03:15:21;4.35;;;2.20;;
54921;SDS011;40824;45.116;21.296;2022-07-10T03:17:47;6.22;;;2.55;;
54921;SDS011;40824;45.116;21.296;2022-07-10T03:20:14;5.30;;;2.13;;
54921;SDS011;40824;45.116;21.296;2022-07-10T03:22:40;3.90;;;2.20;;
54921;SDS011;40824;45.116;21.296;2022-07-10T03:25:06;3.78;;;2.00;;
54921;SDS011;40824;45.116;21.296;2022-07-10T03:27:32;5.25;;;2.10;;
54921;SDS011;40824;45.116;21.296;2022-07-10T03:29:58;5.32;;;2.75;;
54921;SDS011;40824;45.116;21.296;2022-07-10T03:32:24;3.17;;;1.77;;
54921;SDS011;40824;45.116;21.296;2022-07-10T03:34:50;4.38;;;2.20;;
54921;SDS011;40824;45.116;21.296;2022-07-10T03:37:16;4.35;;;2.08;;
54921;SDS011;40824;45.116;21.296;2022-07-10T03:39:42;4.88;;;2.25;;
54921;SDS011;40824;45.116;21.296;2022-07-10T03:42:08;3.65;;;2.17;;
54921;SDS011;40824;45.116;21.296;2022-07-10T03:44:34;3.75;;;2.15;;
54921;SDS011;40824;45.116;21.296;2022-07-10T03:47:00;4.85;;;2.20;;
54921;SDS011;40824;45.116;21.296;2022-07-10T03:49:26;4.75;;;2.42;;
54921;SDS011;40824;45.116;21.296;2022-07-10T03:51:52;5.70;;;2.35;;
54921;SDS011;40824;45.116;21.296;2022-07-10T03:54:19;4.97;;;2.20;;
54921;SDS011;40824;45.116;21.296;2022-07-10T03:56:45;4.07;;;2.08;;
54921;SDS011;40824;45.116;21.296;2022-07-10T03:59:29;5.45;;;2.05;;
54921;SDS011;40824;45.116;21.296;2022-07-10T04:01:55;6.10;;;2.15;;
54921;SDS011;40824;45.116;21.296;2022-07-10T04:04:21;4.03;;;2.10;;
54921;SDS011;40824;45.116;21.296;2022-07-10T04:06:47;5.15;;;2.25;;
54921;SDS011;40824;45.116;21.296;2022-07-10T04:09:13;9.88;;;2.42;;
54921;SDS011;40824;45.116;21.296;2022-07-10T04:11:39;4.85;;;2.50;;
54921;SDS011;40824;45.116;21.296;2022-07-10T04:14:06;5.22;;;2.60;;
54921;SDS011;40824;45.116;21.296;2022-07-10T04:16:32;5.25;;;2.65;;
54921;SDS011;40824;45.116;21.296;2022-07-10T04:18:58;5.00;;;2.90;;
54921;SDS011;40824;45.116;21.296;2022-07-10T04:21:24;6.82;;;3.25;;
54921;SDS011;40824;45.116;21.296;2022-07-10T04:23:50;6.70;;;2.63;;
54921;SDS011;40824;45.116;21.296;2022-07-10T04:26:16;4.88;;;2.92;;
54921;SDS011;40824;45.116;21.296;2022-07-10T04:28:42;5.50;;;3.22;;
54921;SDS011;40824;45.116;21.296;2022-07-10T04:31:08;4.55;;;2.55;;
54921;SDS011;40824;45.116;21.296;2022-07-10T04:33:34;5.70;;;2.78;;
54921;SDS011;40824;45.116;21.296;2022-07-10T04:36:00;4.55;;;2.67;;
54921;SDS011;40824;45.116;21.296;2022-07-10T04:38:26;6.03;;;2.90;;
54921;SDS011;40824;45.116;21.296;2022-07-10T04:40:52;6.95;;;2.47;;
54921;SDS011;40824;45.116;21.296;2022-07-10T04:43:18;5.60;;;2.92;;
54921;SDS011;40824;45.116;21.296;2022-07-10T04:45:44;5.55;;;2.60;;
54921;SDS011;40824;45.116;21.296;2022-07-10T04:48:10;5.75;;;2.72;;
54921;SDS011;40824;45.116;21.296;2022-07-10T04:50:37;6.68;;;2.80;;
54921;SDS011;40824;45.116;21.296;2022-07-10T04:53:03;6.55;;;3.15;;
54921;SDS011;40824;45.116;21.296;2022-07-10T04:55:29;9.07;;;2.92;;
54921;SDS011;40824;45.116;21.296;2022-07-10T04:57:55;4.07;;;2.78;;
54921;SDS011;40824;45.116;21.296;2022-07-10T05:00:21;7.82;;;2.70;;
54921;SDS011;40824;45.116;21.296;2022-07-10T05:02:47;7.97;;;2.60;;
54921;SDS011;40824;45.116;21.296;2022-07-10T05:05:13;5.25;;;2.53;;
54921;SDS011;40824;45.116;21.296;2022-07-10T05:07:39;8.30;;;2.20;;
54921;SDS011;40824;45.116;21.296;2022-07-10T05:10:05;8.13;;;2.92;;
54921;SDS011;40824;45.116;21.296;2022-07-10T05:12:32;5.15;;;2.40;;
54921;SDS011;40824;45.116;21.296;2022-07-10T05:14:58;4.90;;;2.30;;
54921;SDS011;40824;45.116;21.296;2022-07-10T05:17:25;6.13;;;2.20;;
54921;SDS011;40824;45.116;21.296;2022-07-10T05:19:53;5.00;;;2.20;;
54921;SDS011;40824;45.116;21.296;2022-07-10T05:22:21;3.95;;;2.47;;
54921;SDS011;40824;45.116;21.296;2022-07-10T05:24:47;4.13;;;2.70;;
54921;SDS011;40824;45.116;21.296;2022-07-10T05:27:13;5.07;;;2.47;;
54921;SDS011;40824;45.116;21.296;2022-07-10T05:29:41;6.68;;;2.50;;
54921;SDS011;40824;45.116;21.296;2022-07-10T05:32:07;5.85;;;2.60;;
54921;SDS011;40824;45.116;21.296;2022-07-10T05:34:33;5.47;;;2.70;;
54921;SDS011;40824;45.116;21.296;2022-07-10T05:36:59;4.55;;;2.47;;
54921;SDS011;40824;45.116;21.296;2022-07-10T05:39:26;5.30;;;3.00;;
54921;SDS011;40824;45.116;21.296;2022-07-10T05:41:52;5.82;;;2.60;;
54921;SDS011;40824;45.116;21.296;2022-07-10T05:44:19;4.82;;;2.60;;
54921;SDS011;40824;45.116;21.296;2022-07-10T05:46:46;5.03;;;2.63;;
54921;SDS011;40824;45.116;21.296;2022-07-10T05:49:12;4.85;;;2.58;;
54921;SDS011;40824;45.116;21.296;2022-07-10T05:51:38;4.70;;;2.50;;
54921;SDS011;40824;45.116;21.296;2022-07-10T05:54:04;5.85;;;2.67;;
54921;SDS011;40824;45.116;21.296;2022-07-10T05:56:30;4.57;;;3.00;;
54921;SDS011;40824;45.116;21.296;2022-07-10T05:58:56;5.18;;;2.70;;
54921;SDS011;40824;45.116;21.296;2022-07-10T06:01:23;4.63;;;2.80;;
54921;SDS011;40824;45.116;21.296;2022-07-10T06:03:50;5.85;;;3.33;;
54921;SDS011;40824;45.116;21.296;2022-07-10T06:06:17;4.28;;;2.80;;
54921;SDS011;40824;45.116;21.296;2022-07-10T06:08:43;6.05;;;3.00;;
54921;SDS011;40824;45.116;21.296;2022-07-10T06:11:10;5.15;;;3.08;;
54921;SDS011;40824;45.116;21.296;2022-07-10T06:13:36;5.28;;;2.63;;
54921;SDS011;40824;45.116;21.296;2022-07-10T06:16:02;5.22;;;2.42;;
54921;SDS011;40824;45.116;21.296;2022-07-10T06:18:30;4.95;;;3.15;;
54921;SDS011;40824;45.116;21.296;2022-07-10T06:20:56;3.97;;;2.70;;
54921;SDS011;40824;45.116;21.296;2022-07-10T06:23:22;6.75;;;2.72;;
54921;SDS011;40824;45.116;21.296;2022-07-10T06:25:48;4.60;;;3.08;;
54921;SDS011;40824;45.116;21.296;2022-07-10T06:28:15;5.00;;;2.75;;
54921;SDS011;40824;45.116;21.296;2022-07-10T06:30:41;4.68;;;2.63;;
54921;SDS011;40824;45.116;21.296;2022-07-10T06:33:07;6.97;;;2.80;;
54921;SDS011;40824;45.116;21.296;2022-07-10T06:35:34;6.32;;;2.50;;
54921;SDS011;40824;45.116;21.296;2022-07-10T06:38:00;6.00;;;2.80;;
54921;SDS011;40824;45.116;21.296;2022-07-10T06:40:27;7.88;;;3.08;;
54921;SDS011;40824;45.116;21.296;2022-07-10T06:42:54;7.90;;;2.90;;
54921;SDS011;40824;45.116;21.296;2022-07-10T06:45:20;12.18;;;2.90;;
54921;SDS011;40824;45.116;21.296;2022-07-10T06:47:46;7.75;;;2.60;;
54921;SDS011;40824;45.116;21.296;2022-07-10T06:50:22;7.82;;;3.15;;
54921;SDS011;40824;45.116;21.296;2022-07-10T06:52:49;9.55;;;2.83;;
54921;SDS011;40824;45.116;21.296;2022-07-10T06:55:16;7.13;;;2.70;;
54921;SDS011;40824;45.116;21.296;2022-07-10T06:57:43;5.20;;;2.65;;
54921;SDS011;40824;45.116;21.296;2022-07-10T07:00:09;5.90;;;2.55;;
54921;SDS011;40824;45.116;21.296;2022-07-10T07:02:36;6.03;;;2.63;;
54921;SDS011;40824;45.116;21.296;2022-07-10T07:05:03;5.18;;;2.38;;
54921;SDS011;40824;45.116;21.296;2022-07-10T07:07:29;5.40;;;2.47;;
54921;SDS011;40824;45.116;21.296;2022-07-10T07:09:55;5.07;;;2.90;;
54921;SDS011;40824;45.116;21.296;2022-07-10T07:12:21;8.20;;;2.95;;
54921;SDS011;40824;45.116;21.296;2022-07-10T07:14:47;4.38;;;2.30;;
54921;SDS011;40824;45.116;21.296;2022-07-10T07:17:13;4.78;;;2.60;;
54921;SDS011;40824;45.116;21.296;2022-07-10T07:19:40;3.65;;;2.50;;
54921;SDS011;40824;45.116;21.296;2022-07-10T07:22:25;5.40;;;2.80;;
54921;SDS011;40824;45.116;21.296;2022-07-10T07:25:10;4.55;;;2.50;;
54921;SDS011;40824;45.116;21.296;2022-07-10T07:27:37;4.30;;;2.58;;
54921;SDS011;40824;45.116;21.296;2022-07-10T07:30:07;5.40;;;2.40;;
54921;SDS011;40824;45.116;21.296;2022-07-10T07:32:35;6.35;;;2.70;;
54921;SDS011;40824;45.116;21.296;2022-07-10T07:35:02;4.22;;;2.20;;
54921;SDS011;40824;45.116;21.296;2022-07-10T07:40:07;3.60;;;2.67;;
54921;SDS011;40824;45.116;21.296;2022-07-10T07:42:33;4.82;;;2.20;;
54921;SDS011;40824;45.116;21.296;2022-07-10T07:45:00;3.30;;;2.03;;
54921;SDS011;40824;45.116;21.296;2022-07-10T07:47:26;4.10;;;2.47;;
54921;SDS011;40824;45.116;21.296;2022-07-10T07:49:52;4.80;;;2.30;;
54921;SDS011;40824;45.116;21.296;2022-07-10T07:52:18;4.70;;;2.13;;
54921;SDS011;40824;45.116;21.296;2022-07-10T07:54:44;5.28;;;2.30;;
54921;SDS011;40824;45.116;21.296;2022-07-10T07:57:10;9.93;;;2.40;;
54921;SDS011;40824;45.116;21.296;2022-07-10T07:59:36;9.70;;;2.70;;
54921;SDS011;40824;45.116;21.296;2022-07-10T08:02:04;5.72;;;2.15;;
54921;SDS011;40824;45.116;21.296;2022-07-10T08:04:31;3.13;;;2.10;;
54921;SDS011;40824;45.116;21.296;2022-07-10T08:06:57;3.42;;;2.20;;
54921;SDS011;40824;45.116;21.296;2022-07-10T08:09:23;4.05;;;2.13;;
54921;SDS011;40824;45.116;21.296;2022-07-10T08:11:49;3.72;;;2.20;;
54921;SDS011;40824;45.116;21.296;2022-07-10T08:14:15;5.55;;;2.30;;
54921;SDS011;40824;45.116;21.296;2022-07-10T08:16:42;3.90;;;2.25;;
54921;SDS011;40824;45.116;21.296;2022-07-10T08:19:08;4.38;;;2.00;;
54921;SDS011;40824;45.116;21.296;2022-07-10T08:21:34;6.72;;;2.22;;
54921;SDS011;40824;45.116;21.296;2022-07-10T08:24:00;6.13;;;2.72;;
54921;SDS011;40824;45.116;21.296;2022-07-10T08:26:26;3.40;;;2.45;;
54921;SDS011;40824;45.116;21.296;2022-07-10T08:28:52;4.00;;;2.70;;
54921;SDS011;40824;45.116;21.296;2022-07-10T08:31:18;4.25;;;2.38;;
54921;SDS011;40824;45.116;21.296;2022-07-10T08:33:44;3.90;;;2.28;;
54921;SDS011;40824;45.116;21.296;2022-07-10T08:36:11;3.30;;;2.33;;
54921;SDS011;40824;45.116;21.296;2022-07-10T08:38:37;3.97;;;2.42;;
54921;SDS011;40824;45.116;21.296;2022-07-10T08:41:04;4.90;;;2.00;;
54921;SDS011;40824;45.116;21.296;2022-07-10T08:43:31;3.63;;;2.13;;
54921;SDS011;40824;45.116;21.296;2022-07-10T08:45:57;3.65;;;2.45;;
54921;SDS011;40824;45.116;21.296;2022-07-10T08:48:24;4.78;;;2.30;;
54921;SDS011;40824;45.116;21.296;2022-07-10T08:50:51;3.47;;;2.20;;
54921;SDS011;40824;45.116;21.296;2022-07-10T08:53:19;3.08;;;2.20;;
54921;SDS011;40824;45.116;21.296;2022-07-10T08:55:49;4.93;;;2.13;;
54921;SDS011;40824;45.116;21.296;2022-07-10T08:58:15;3.63;;;2.30;;
54921;SDS011;40824;45.116;21.296;2022-07-10T09:00:42;4.75;;;2.40;;
54921;SDS011;40824;45.116;21.296;2022-07-10T09:03:08;4.38;;;2.30;;
54921;SDS011;40824;45.116;21.296;2022-07-10T09:05:34;3.28;;;2.38;;
54921;SDS011;40824;45.116;21.296;2022-07-10T09:08:00;3.75;;;2.40;;
54921;SDS011;40824;45.116;21.296;2022-07-10T09:10:27;5.57;;;2.53;;
54921;SDS011;40824;45.116;21.296;2022-07-10T09:12:55;4.65;;;2.65;;
54921;SDS011;40824;45.116;21.296;2022-07-10T09:15:22;5.05;;;2.50;;
54921;SDS011;40824;45.116;21.296;2022-07-10T09:17:52;3.50;;;2.10;;
54921;SDS011;40824;45.116;21.296;2022-07-10T09:22:51;6.15;;;2.10;;
54921;SDS011;40824;45.116;21.296;2022-07-10T09:25:17;3.58;;;2.25;;
54921;SDS011;40824;45.116;21.296;2022-07-10T09:27:52;13.68;;;2.47;;
54921;SDS011;40824;45.116;21.296;2022-07-10T09:30:38;5.88;;;2.10;;
54921;SDS011;40824;45.116;21.296;2022-07-10T09:33:14;10.40;;;2.72;;
54921;SDS011;40824;45.116;21.296;2022-07-10T09:41:13;3.17;;;2.30;;
54921;SDS011;40824;45.116;21.296;2022-07-10T09:44:02;6.15;;;2.40;;
54921;SDS011;40824;45.116;21.296;2022-07-10T09:49:00;3.63;;;2.17;;
54921;SDS011;40824;45.116;21.296;2022-07-10T09:51:28;4.10;;;2.50;;
54921;SDS011;40824;45.116;21.296;2022-07-10T09:53:55;5.47;;;2.30;;
54921;SDS011;40824;45.116;21.296;2022-07-10T09:56:22;4.10;;;2.33;;
54921;SDS011;40824;45.116;21.296;2022-07-10T09:58:48;4.68;;;3.10;;
54921;SDS011;40824;45.116;21.296;2022-07-10T10:01:16;4.07;;;2.38;;
54921;SDS011;40824;45.116;21.296;2022-07-10T10:03:43;3.65;;;2.45;;
54921;SDS011;40824;45.116;21.296;2022-07-10T10:06:15;3.45;;;2.30;;
54921;SDS011;40824;45.116;21.296;2022-07-10T10:08:51;4.85;;;2.45;;
54921;SDS011;40824;45.116;21.296;2022-07-10T10:11:22;4.25;;;2.10;;
54921;SDS011;40824;45.116;21.296;2022-07-10T10:13:49;5.05;;;2.22;;
54921;SDS011;40824;45.116;21.296;2022-07-10T10:16:16;5.05;;;2.30;;
54921;SDS011;40824;45.116;21.296;2022-07-10T10:18:43;5.55;;;2.50;;
54921;SDS011;40824;45.116;21.296;2022-07-10T10:21:30;4.38;;;2.22;;
54921;SDS011;40824;45.116;21.296;2022-07-10T10:23:56;4.45;;;2.20;;
54921;SDS011;40824;45.116;21.296;2022-07-10T10:26:22;4.22;;;2.10;;
54921;SDS011;40824;45.116;21.296;2022-07-10T10:28:52;4.55;;;2.33;;
54921;SDS011;40824;45.116;21.296;2022-07-10T10:31:21;5.10;;;2.25;;
54921;SDS011;40824;45.116;21.296;2022-07-10T10:33:47;3.45;;;2.33;;
54921;SDS011;40824;45.116;21.296;2022-07-10T10:39:15;4.80;;;2.08;;
54921;SDS011;40824;45.116;21.296;2022-07-10T10:46:38;3.40;;;2.10;;
54921;SDS011;40824;45.116;21.296;2022-07-10T10:49:19;5.47;;;2.27;;
54921;SDS011;40824;45.116;21.296;2022-07-10T10:54:20;4.60;;;2.53;;
54921;SDS011;40824;45.116;21.296;2022-07-10T10:57:07;4.60;;;2.60;;
54921;SDS011;40824;45.116;21.296;2022-07-10T10:59:52;2.85;;;2.10;;
54921;SDS011;40824;45.116;21.296;2022-07-10T11:04:51;5.20;;;2.53;;
54921;SDS011;40824;45.116;21.296;2022-07-10T11:15:45;4.82;;;2.08;;
54921;SDS011;40824;45.116;21.296;2022-07-10T11:18:12;3.03;;;2.38;;
54921;SDS011;40824;45.116;21.296;2022-07-10T11:20:40;6.60;;;2.30;;
54921;SDS011;40824;45.116;21.296;2022-07-10T11:25:52;4.25;;;2.55;;
54921;SDS011;40824;45.116;21.296;2022-07-10T11:31:20;3.80;;;2.40;;
54921;SDS011;40824;45.116;21.296;2022-07-10T11:33:47;4.65;;;2.25;;
54921;SDS011;40824;45.116;21.296;2022-07-10T11:38:40;3.85;;;2.40;;
54921;SDS011;40824;45.116;21.296;2022-07-10T11:41:17;4.97;;;2.30;;
54921;SDS011;40824;45.116;21.296;2022-07-10T11:44:01;4.22;;;2.40;;
54921;SDS011;40824;45.116;21.296;2022-07-10T11:46:34;5.22;;;2.33;;
54921;SDS011;40824;45.116;21.296;2022-07-10T11:49:04;3.72;;;2.40;;
54921;SDS011;40824;45.116;21.296;2022-07-10T11:51:34;3.55;;;2.20;;
54921;SDS011;40824;45.116;21.296;2022-07-10T11:54:10;4.03;;;2.30;;
54921;SDS011;40824;45.116;21.296;2022-07-10T11:56:38;3.15;;;2.13;;
54921;SDS011;40824;45.116;21.296;2022-07-10T11:59:07;5.57;;;2.20;;
54921;SDS011;40824;45.116;21.296;2022-07-10T12:01:46;4.75;;;2.53;;
54921;SDS011;40824;45.116;21.296;2022-07-10T12:04:14;5.40;;;2.50;;
54921;SDS011;40824;45.116;21.296;2022-07-10T12:06:41;3.25;;;1.98;;
54921;SDS011;40824;45.116;21.296;2022-07-10T12:09:11;3.95;;;2.10;;
54921;SDS011;40824;45.116;21.296;2022-07-10T12:11:38;6.78;;;2.63;;
54921;SDS011;40824;45.116;21.296;2022-07-10T12:16:39;3.42;;;2.17;;
54921;SDS011;40824;45.116;21.296;2022-07-10T12:19:07;3.70;;;2.00;;
54921;SDS011;40824;45.116;21.296;2022-07-10T12:21:34;4.47;;;2.22;;
54921;SDS011;40824;45.116;21.296;2022-07-10T12:24:00;5.05;;;2.67;;
54921;SDS011;40824;45.116;21.296;2022-07-10T12:26:32;3.85;;;2.30;;
54921;SDS011;40824;45.116;21.296;2022-07-10T12:28:58;3.47;;;2.13;;
54921;SDS011;40824;45.116;21.296;2022-07-10T12:31:25;4.28;;;2.00;;
54921;SDS011;40824;45.116;21.296;2022-07-10T12:33:56;3.22;;;2.05;;
54921;SDS011;40824;45.116;21.296;2022-07-10T12:36:25;3.85;;;2.15;;
54921;SDS011;40824;45.116;21.296;2022-07-10T12:38:55;3.15;;;1.92;;
54921;SDS011;40824;45.116;21.296;2022-07-10T12:41:22;4.43;;;2.42;;
54921;SDS011;40824;45.116;21.296;2022-07-10T12:43:50;4.70;;;2.25;;
54921;SDS011;40824;45.116;21.296;2022-07-10T12:46:17;5.85;;;2.55;;
54921;SDS011;40824;45.116;21.296;2022-07-10T12:49:00;10.88;;;3.00;;
54921;SDS011;40824;45.116;21.296;2022-07-10T12:51:28;7.00;;;2.50;;
54921;SDS011;40824;45.116;21.296;2022-07-10T12:53:55;15.40;;;2.38;;
54921;SDS011;40824;45.116;21.296;2022-07-10T12:56:31;5.60;;;2.63;;
54921;SDS011;40824;45.116;21.296;2022-07-10T12:58:59;10.00;;;2.25;;
54921;SDS011;40824;45.116;21.296;2022-07-10T13:01:28;5.82;;;2.50;;
54921;SDS011;40824;45.116;21.296;2022-07-10T13:03:59;7.30;;;1.92;;
54921;SDS011;40824;45.116;21.296;2022-07-10T13:06:26;7.70;;;2.50;;
54921;SDS011;40824;45.116;21.296;2022-07-10T13:08:52;5.60;;;2.00;;
54921;SDS011;40824;45.116;21.296;2022-07-10T13:11:19;5.75;;;2.25;;
54921;SDS011;40824;45.116;21.296;2022-07-10T13:13:45;6.30;;;1.90;;
54921;SDS011;40824;45.116;21.296;2022-07-10T13:16:11;11.52;;;2.33;;
54921;SDS011;40824;45.116;21.296;2022-07-10T13:18:37;5.30;;;2.17;;
54921;SDS011;40824;45.116;21.296;2022-07-10T13:21:03;3.35;;;2.00;;
54921;SDS011;40824;45.116;21.296;2022-07-10T13:23:29;5.22;;;2.05;;
54921;SDS011;40824;45.116;21.296;2022-07-10T13:25:58;4.80;;;2.00;;
54921;SDS011;40824;45.116;21.296;2022-07-10T13:28:26;6.03;;;2.30;;
54921;SDS011;40824;45.116;21.296;2022-07-10T13:30:52;4.28;;;2.15;;
54921;SDS011;40824;45.116;21.296;2022-07-10T13:33:18;3.65;;;1.75;;
54921;SDS011;40824;45.116;21.296;2022-07-10T13:35:45;7.60;;;2.30;;
54921;SDS011;40824;45.116;21.296;2022-07-10T13:38:11;3.03;;;1.98;;
54921;SDS011;40824;45.116;21.296;2022-07-10T13:40:37;4.70;;;2.08;;
54921;SDS011;40824;45.116;21.296;2022-07-10T13:43:04;4.68;;;2.10;;
54921;SDS011;40824;45.116;21.296;2022-07-10T13:45:32;5.18;;;2.15;;
54921;SDS011;40824;45.116;21.296;2022-07-10T13:48:08;3.30;;;1.95;;
54921;SDS011;40824;45.116;21.296;2022-07-10T13:50:36;3.50;;;2.08;;
54921;SDS011;40824;45.116;21.296;2022-07-10T13:53:02;6.53;;;2.50;;
54921;SDS011;40824;45.116;21.296;2022-07-10T13:55:29;3.10;;;1.90;;
54921;SDS011;40824;45.116;21.296;2022-07-10T13:57:55;4.72;;;2.58;;
54921;SDS011;40824;45.116;21.296;2022-07-10T14:00:21;4.68;;;1.92;;
54921;SDS011;40824;45.116;21.296;2022-07-10T14:02:47;3.42;;;1.83;;
54921;SDS011;40824;45.116;21.296;2022-07-10T14:05:13;4.15;;;1.92;;
54921;SDS011;40824;45.116;21.296;2022-07-10T14:07:39;3.78;;;1.70;;
54921;SDS011;40824;45.116;21.296;2022-07-10T14:10:05;5.43;;;1.90;;
54921;SDS011;40824;45.116;21.296;2022-07-10T14:12:31;3.88;;;2.00;;
54921;SDS011;40824;45.116;21.296;2022-07-10T14:14:58;3.08;;;2.00;;
54921;SDS011;40824;45.116;21.296;2022-07-10T14:17:25;2.75;;;1.70;;
54921;SDS011;40824;45.116;21.296;2022-07-10T14:19:53;2.97;;;1.92;;
54921;SDS011;40824;45.116;21.296;2022-07-10T14:22:19;2.35;;;1.60;;
54921;SDS011;40824;45.116;21.296;2022-07-10T14:24:46;3.72;;;1.92;;
54921;SDS011;40824;45.116;21.296;2022-07-10T14:27:12;4.43;;;1.90;;
54921;SDS011;40824;45.116;21.296;2022-07-10T14:29:40;2.78;;;1.92;;
54921;SDS011;40824;45.116;21.296;2022-07-10T14:32:06;3.60;;;1.90;;
54921;SDS011;40824;45.116;21.296;2022-07-10T14:34:33;3.13;;;1.85;;
54921;SDS011;40824;45.116;21.296;2022-07-10T14:36:59;3.03;;;1.95;;
54921;SDS011;40824;45.116;21.296;2022-07-10T14:39:25;2.42;;;1.60;;
54921;SDS011;40824;45.116;21.296;2022-07-10T14:41:51;3.55;;;1.77;;
54921;SDS011;40824;45.116;21.296;2022-07-10T14:44:17;8.57;;;1.95;;
54921;SDS011;40824;45.116;21.296;2022-07-10T14:46:43;2.60;;;1.58;;
54921;SDS011;40824;45.116;21.296;2022-07-10T14:49:09;2.97;;;1.83;;
54921;SDS011;40824;45.116;21.296;2022-07-10T14:51:35;3.05;;;1.80;;
54921;SDS011;40824;45.116;21.296;2022-07-10T14:54:02;4.70;;;1.80;;
54921;SDS011;40824;45.116;21.296;2022-07-10T14:56:28;3.08;;;1.70;;
54921;SDS011;40824;45.116;21.296;2022-07-10T14:58:54;3.08;;;1.85;;
54921;SDS011;40824;45.116;21.296;2022-07-10T15:01:20;2.70;;;1.42;;
54921;SDS011;40824;45.116;21.296;2022-07-10T15:03:46;3.38;;;1.60;;
54921;SDS011;40824;45.116;21.296;2022-07-10T15:06:12;5.00;;;2.15;;
54921;SDS011;40824;45.116;21.296;2022-07-10T15:08:38;3.63;;;1.90;;
54921;SDS011;40824;45.116;21.296;2022-07-10T15:11:04;2.83;;;1.80;;
54921;SDS011;40824;45.116;21.296;2022-07-10T15:13:32;2.95;;;1.83;;
54921;SDS011;40824;45.116;21.296;2022-07-10T15:15:58;4.05;;;1.80;;
54921;SDS011;40824;45.116;21.296;2022-07-10T15:18:25;2.97;;;1.73;;